Time;durP1;ratioP1;P1;durP2;ratioP2;P2;SDS_P1;SDS_P2;PMS_P1;PMS_P2;Temp;Humidity;BMP_temperature;BMP_pressure;BME280_temperature;BME280_humidity;BME280_pressure;Samples;Min_cycle;Max_cycle;Signal;HPM_P1;HPM_P2
2023/04/05 00:03:04;;;;;;;;;;;;;;;-2.44;100.00;96070.09;10516237;28;2890;-72
2023/04/05 00:08:12;;;;;;;;;;;;;;;-2.53;100.00;96068.59;10516259;28;2892;-73
2023/04/05 00:13:14;;;;;;;;;;;;;;;-2.63;100.00;96068.06;10523349;28;2894;-71
2023/04/05 00:18:22;;;;;;;;;;;;;;;-2.65;100.00;96064.81;10519469;28;2463;-72
2023/04/05 00:23:25;;;;;;;;;;;;;;;-2.65;100.00;96070.06;10502651;28;2381;-72
2023/04/05 00:28:28;;;;;;;;;;;;;;;-2.61;100.00;96063.41;10523497;28;2598;-72
2023/04/05 00:33:33;;;;;;;;;;;;;;;-2.51;100.00;96053.44;10523041;28;2970;-71
2023/04/05 00:38:36;;;;;;;;;;;;;;;-2.35;100.00;96049.78;10523497;28;2480;-71
2023/04/05 00:43:38;;;;;;;;;;;;;;;-2.31;100.00;96051.81;10515218;28;2337;-71
2023/04/05 00:48:41;;;;;;;;;;;;;;;-2.15;100.00;96044.72;10500856;28;3082;-71
2023/04/05 00:53:46;;;;;;;;;;;;;;;-2.01;100.00;96035.91;10514458;28;2453;-72
2023/04/05 00:58:50;;;;;;;;;;;;;;;-2.13;100.00;96035.59;10524619;28;2441;-70
2023/04/05 01:03:53;;;;;;;;;;;;;;;-2.17;100.00;96036.97;10514726;28;2444;-71
2023/04/05 01:08:56;;;;;;;;;;;;;;;-2.17;100.00;96021.97;10520613;28;2346;-74
2023/04/05 01:13:59;;;;;;;;;;;;;;;-2.20;100.00;96027.63;10520308;28;2493;-71
2023/04/05 01:19:03;;;;;;;;;;;;;;;-2.20;100.00;96019.75;10499695;28;2919;-71
2023/04/05 01:24:08;;;;;;;;;;;;;;;-2.19;100.00;96013.47;10504065;28;2351;-72
2023/04/05 01:29:11;;;;;;;;;;;;;;;-2.26;100.00;96004.69;10515509;28;2457;-72
2023/04/05 01:34:13;;;;;;;;;;;;;;;-2.33;100.00;96006.44;10530567;28;2464;-71
2023/04/05 01:39:16;;;;;;;;;;;;;;;-2.34;100.00;95994.28;10516072;28;2310;-73
2023/04/05 01:44:19;;;;;;;;;;;;;;;-2.45;100.00;95997.41;10522803;28;2459;-72
2023/04/05 01:49:21;;;;;;;;;;;;;;;-2.51;100.00;95993.69;10519020;28;2414;-72
2023/04/05 01:54:24;;;;;;;;;;;;;;;-2.48;100.00;95995.16;10525056;28;2377;-73
2023/04/05 01:59:26;;;;;;;;;;;;;;;-2.47;100.00;95986.25;10527707;28;3037;-72
2023/04/05 02:04:29;;;;;;;;;;;;;;;-2.48;100.00;95982.81;10512149;28;2934;-70
2023/04/05 02:09:32;;;;;;;;;;;;;;;-2.47;100.00;95979.16;10514601;28;2402;-72
2023/04/05 02:14:35;;;;;;;;;;;;;;;-2.59;100.00;95985.94;10513716;28;2325;-72
2023/04/05 02:19:45;;;;;;;;;;;;;;;-2.59;100.00;95979.84;10514699;28;2898;-72
2023/04/05 02:24:49;;;;;;;;;;;;;;;-2.60;100.00;95978.22;10499063;28;2371;-71
2023/04/05 02:29:54;;;;;;;;;;;;;;;-2.54;100.00;95974.84;10520969;28;3294;-72
2023/04/05 02:34:57;;;;;;;;;;;;;;;-2.48;100.00;95972.28;10519378;28;2862;-72
2023/04/05 02:39:59;;;;;;;;;;;;;;;-2.26;100.00;95959.09;10521055;28;2958;-73
2023/04/05 02:45:02;;;;;;;;;;;;;;;-2.09;100.00;95954.41;10517247;28;2391;-72
2023/04/05 02:50:05;;;;;;;;;;;;;;;-2.06;100.00;95957.44;10496734;28;2820;-72
2023/04/05 02:55:09;;;;;;;;;;;;;;;-2.12;100.00;95962.66;10518915;28;2858;-71
2023/04/05 03:00:12;;;;;;;;;;;;;;;-2.19;100.00;95949.44;10518786;28;2437;-71
2023/04/05 03:05:17;;;;;;;;;;;;;;;-2.28;100.00;95951.41;10522072;28;2931;-72
2023/04/05 03:10:21;;;;;;;;;;;;;;;-2.30;100.00;95956.03;10512507;28;2997;-70
2023/04/05 03:15:24;;;;;;;;;;;;;;;-2.32;100.00;95950.16;10508509;28;2496;-71
2023/04/05 03:20:26;;;;;;;;;;;;;;;-2.38;100.00;95945.63;10515426;28;2402;-71
2023/04/05 03:25:30;;;;;;;;;;;;;;;-2.35;100.00;95942.63;10517961;28;2879;-71
2023/04/05 03:30:32;;;;;;;;;;;;;;;-2.48;100.00;95938.06;10506988;28;2488;-71
2023/04/05 03:35:35;;;;;;;;;;;;;;;-2.55;100.00;95950.31;10518930;28;2337;-71
2023/04/05 03:40:37;;;;;;;;;;;;;;;-2.62;100.00;95943.38;10514145;28;3002;-71
2023/04/05 03:45:39;;;;;;;;;;;;;;;-2.64;100.00;95940.13;10510863;28;2279;-71
2023/04/05 03:50:42;;;;;;;;;;;;;;;-2.61;100.00;95945.00;10515347;28;2461;-74
2023/04/05 03:55:48;;;;;;;;;;;;;;;-2.72;100.00;95941.88;10515771;28;2356;-71
2023/04/05 04:00:51;;;;;;;;;;;;;;;-2.56;100.00;95945.25;10507103;28;2961;-71
2023/04/05 04:06:04;;;;;;;;;;;;;;;-2.64;100.00;95940.13;10512831;28;2449;-71
2023/04/05 04:11:07;;;;;;;;;;;;;;;-2.60;100.00;95944.81;10505219;28;2946;-74
2023/04/05 04:16:09;;;;;;;;;;;;;;;-2.67;100.00;95937.84;10514406;28;2959;-72
2023/04/05 04:21:13;;;;;;;;;;;;;;;-2.78;100.00;95939.97;10515833;28;2424;-70
2023/04/05 04:26:27;;;;;;;;;;;;;;;-2.91;100.00;95945.09;10510430;28;2543;-72
2023/04/05 04:31:32;;;;;;;;;;;;;;;-2.89;100.00;95945.72;10519157;28;2848;-72
2023/04/05 04:36:35;;;;;;;;;;;;;;;-2.86;100.00;95947.16;10513492;28;2510;-72
2023/04/05 04:41:37;;;;;;;;;;;;;;;-2.96;100.00;95947.47;10510280;28;2514;-73
2023/04/05 04:46:42;;;;;;;;;;;;;;;-2.96;100.00;95946.66;10502423;28;2348;-71
2023/04/05 04:51:44;;;;;;;;;;;;;;;-3.06;100.00;95949.56;10516301;28;2941;-72
2023/04/05 04:56:47;;;;;;;;;;;;;;;-3.05;100.00;95943.31;10521146;28;2356;-72
2023/04/05 05:01:50;;;;;;;;;;;;;;;-2.90;100.00;95945.91;10518904;28;2906;-73
2023/04/05 05:06:54;;;;;;;;;;;;;;;-2.83;100.00;95937.09;10519129;28;2567;-72
2023/04/05 05:11:58;;;;;;;;;;;;;;;-2.71;100.00;95945.31;10521899;28;3252;-73
2023/04/05 05:17:00;;;;;;;;;;;;;;;-2.59;100.00;95937.75;10511772;28;2500;-71
2023/04/05 05:22:03;;;;;;;;;;;;;;;-2.48;100.00;95931.97;10521771;28;2477;-73
2023/04/05 05:27:06;;;;;;;;;;;;;;;-2.33;100.00;95940.63;10519969;28;2320;-72
2023/04/05 05:32:13;;;;;;;;;;;;;;;-2.15;100.00;95942.00;10522879;28;3294;-76
2023/04/05 05:37:16;;;;;;;;;;;;;;;-1.84;100.00;95941.63;10524561;28;2951;-72
2023/04/05 05:42:20;;;;;;;;;;;;;;;-1.54;100.00;95940.38;10525833;28;2339;-75
2023/04/05 05:47:22;;;;;;;;;;;;;;;-1.50;100.00;95940.81;10522404;28;2857;-73
2023/04/05 05:52:27;;;;;;;;;;;;;;;-1.35;100.00;95954.69;10531175;28;2481;-72
2023/04/05 05:57:39;;;;;;;;;;;;;;;-1.38;100.00;95958.53;10524736;28;2477;-74
2023/04/05 06:02:48;;;;;;;;;;;;;;;-1.29;100.00;95951.28;10523924;28;2449;-73
2023/04/05 06:07:51;;;;;;;;;;;;;;;-1.23;100.00;95955.78;10525339;28;2915;-74
2023/04/05 06:12:54;;;;;;;;;;;;;;;-1.04;100.00;95961.34;10516945;28;2563;-74
2023/04/05 06:17:57;;;;;;;;;;;;;;;-0.75;100.00;95953.13;10519329;28;2348;-72
2023/04/05 06:23:00;;;;;;;;;;;;;;;-0.82;100.00;95965.50;10513348;28;2406;-77
2023/04/05 06:28:04;;;;;;;;;;;;;;;-0.52;100.00;95967.81;10519296;28;2998;-77
2023/04/05 06:33:06;;;;;;;;;;;;;;;-0.57;100.00;95966.59;10525330;28;2401;-78
2023/04/05 06:38:09;;;;;;;;;;;;;;;-0.52;100.00;95960.69;10504729;28;2380;-77
2023/04/05 06:43:11;;;;;;;;;;;;;;;-0.61;100.00;95952.16;10516786;28;2353;-77
2023/04/05 06:48:14;;;;;;;;;;;;;;;-0.53;100.00;95956.44;10519071;28;2724;-73
2023/04/05 06:53:18;;;;;;;;;;;;;;;-0.29;100.00;95955.06;10516536;28;2880;-77
2023/04/05 06:58:20;;;;;;;;;;;;;;;-0.13;100.00;95957.31;10522519;28;2713;-79
2023/04/05 07:03:23;;;;;;;;;;;;;;;0.23;100.00;95950.81;10496944;28;3204;-78
2023/04/05 07:08:36;;;;;;;;;;;;;;;0.63;100.00;95950.75;10514698;28;2329;-75
2023/04/05 07:13:39;;;;;;;;;;;;;;;1.08;100.00;95948.97;10505494;28;3153;-73
2023/04/05 07:18:42;;;;;;;;;;;;;;;1.25;100.00;95939.56;10510014;28;3120;-73
2023/04/05 07:23:45;;;;;;;;;;;;;;;1.13;100.00;95940.41;10517351;28;2714;-77
2023/04/05 07:28:57;;;;;;;;;;;;;;;0.86;100.00;95943.16;10526755;28;3148;-77
2023/04/05 07:34:00;;;;;;;;;;;;;;;0.98;100.00;95957.38;10522726;28;2427;-75
2023/04/05 07:39:04;;;;;;;;;;;;;;;1.14;100.00;95952.63;10516881;28;3330;-74
2023/04/05 07:44:06;;;;;;;;;;;;;;;0.92;100.00;95960.88;10513480;28;3180;-73
2023/04/05 07:49:08;;;;;;;;;;;;;;;1.37;100.00;95957.44;10515212;28;2763;-76
2023/04/05 07:54:11;;;;;;;;;;;;;;;1.54;96.96;95959.38;10514258;28;2726;-76
2023/04/05 07:59:14;;;;;;;;;;;;;;;1.57;99.07;95968.72;10518393;28;2322;-79
2023/04/05 08:04:17;;;;;;;;;;;;;;;1.94;97.30;95964.44;10514379;28;3259;-73
2023/04/05 08:09:20;;;;;;;;;;;;;;;2.37;93.75;95953.91;10505940;28;2725;-70
2023/04/05 08:14:23;;;;;;;;;;;;;;;2.72;93.45;95956.00;10511124;28;3156;-71
2023/04/05 08:19:26;;;;;;;;;;;;;;;2.98;89.94;95954.91;10508083;28;3235;-75
2023/04/05 08:24:28;;;;;;;;;;;;;;;3.05;89.40;95950.34;10507005;28;3189;-72
2023/04/05 08:29:31;;;;;;;;;;;;;;;2.73;81.95;95952.31;10508324;28;2317;-72
2023/04/05 08:34:33;;;;;;;;;;;;;;;2.80;80.43;95953.09;10520982;28;3115;-71
2023/04/05 08:39:36;;;;;;;;;;;;;;;3.19;78.63;95951.84;10512429;28;2745;-71
2023/04/05 08:44:48;;;;;;;;;;;;;;;3.27;76.70;95952.56;10517203;28;3198;-72
2023/04/05 08:49:55;;;;;;;;;;;;;;;3.15;76.13;95955.97;10521405;28;2348;-74
2023/04/05 08:54:58;;;;;;;;;;;;;;;3.23;71.82;95960.97;10514815;28;2266;-73
2023/04/05 09:00:00;;;;;;;;;;;;;;;3.32;71.94;95950.88;10517480;28;2738;-73
2023/04/05 09:05:03;;;;;;;;;;;;;;;3.58;71.27;95944.38;10519779;28;3108;-74
2023/04/05 09:10:05;;;;;;;;;;;;;;;2.93;69.61;95949.47;10507413;28;2826;-73
2023/04/05 09:15:08;;;;;;;;;;;;;;;3.78;65.11;95955.56;10521766;28;3132;-73
2023/04/05 09:20:11;;;;;;;;;;;;;;;3.46;63.94;95948.84;10522965;28;3132;-72
2023/04/05 09:25:13;;;;;;;;;;;;;;;3.48;60.02;95944.91;10518714;28;2293;-78
2023/04/05 09:30:17;;;;;;;;;;;;;;;4.00;60.14;95945.19;10521216;28;2702;-73
2023/04/05 09:35:21;;;;;;;;;;;;;;;5.21;57.76;95940.22;10520241;28;3190;-74
2023/04/05 09:40:24;;;;;;;;;;;;;;;5.20;53.44;95938.59;10504715;28;3195;-73
2023/04/05 09:45:27;;;;;;;;;;;;;;;3.93;56.68;95949.00;10515525;28;2317;-73
2023/04/05 09:50:31;;;;;;;;;;;;;;;4.70;57.01;95941.78;10509773;28;3205;-73
2023/04/05 09:55:34;;;;;;;;;;;;;;;4.43;55.09;95943.31;10510342;28;2825;-73
2023/04/05 10:00:36;;;;;;;;;;;;;;;4.16;55.36;95934.94;10512799;28;3151;-72
2023/04/05 10:05:41;;;;;;;;;;;;;;;4.12;53.23;95942.56;10512170;28;2810;-72
2023/04/05 10:10:43;;;;;;;;;;;;;;;4.36;55.00;95931.97;10513341;28;2344;-73
2023/04/05 10:15:47;;;;;;;;;;;;;;;4.76;52.79;95924.88;10514263;28;3183;-73
2023/04/05 10:20:51;;;;;;;;;;;;;;;5.07;52.77;95925.53;10513923;28;3268;-74
2023/04/05 10:25:53;;;;;;;;;;;;;;;4.53;54.59;95930.25;10508903;28;2302;-73
2023/04/05 10:30:56;;;;;;;;;;;;;;;3.85;54.72;95926.22;10489743;28;3159;-73
2023/04/05 10:35:59;;;;;;;;;;;;;;;4.10;56.20;95914.59;10508225;28;2774;-72
2023/04/05 10:41:02;;;;;;;;;;;;;;;4.21;54.12;95913.78;10506595;28;2686;-74
2023/04/05 10:46:05;;;;;;;;;;;;;;;4.02;54.51;95927.19;10505205;28;2339;-73
2023/04/05 10:51:08;;;;;;;;;;;;;;;4.16;53.58;95916.31;10511248;28;3110;-72
2023/04/05 10:56:10;;;;;;;;;;;;;;;4.64;52.72;95913.44;10509925;28;2678;-73
2023/04/05 11:01:16;;;;;;;;;;;;;;;4.82;52.21;95907.97;10505916;28;2370;-74
2023/04/05 11:06:18;;;;;;;;;;;;;;;5.22;51.46;95901.88;10514574;28;2341;-72
2023/04/05 11:11:21;;;;;;;;;;;;;;;4.46;52.55;95892.28;10521329;28;3100;-73
2023/04/05 11:16:24;;;;;;;;;;;;;;;4.53;52.22;95896.44;10521594;28;2774;-75
2023/04/05 11:21:27;;;;;;;;;;;;;;;4.61;52.08;95905.94;10503088;28;2651;-74
2023/04/05 11:26:30;;;;;;;;;;;;;;;4.87;51.39;95899.28;10508767;28;2769;-73
2023/04/05 11:31:33;;;;;;;;;;;;;;;5.00;49.32;95899.03;10511206;28;2320;-73
2023/04/05 11:36:36;;;;;;;;;;;;;;;5.40;49.88;95891.03;10504342;28;3127;-72
2023/04/05 11:41:39;;;;;;;;;;;;;;;5.21;49.45;95892.25;10496678;28;2730;-73
2023/04/05 11:46:41;;;;;;;;;;;;;;;5.54;51.46;95866.78;10517215;28;2707;-74
2023/04/05 11:51:47;;;;;;;;;;;;;;;5.16;49.53;95878.84;10512637;28;3181;-71
2023/04/05 11:56:50;;;;;;;;;;;;;;;5.28;50.45;95868.97;10509855;28;3119;-70
2023/04/05 12:01:53;;;;;;;;;;;;;;;5.40;49.96;95877.69;10506698;28;2281;-72
2023/04/05 12:07:01;;;;;;;;;;;;;;;5.76;49.11;95862.34;10494906;28;2813;-73
2023/04/05 12:12:04;;;;;;;;;;;;;;;5.22;48.57;95869.91;10509251;28;2694;-71
2023/04/05 12:17:07;;;;;;;;;;;;;;;5.35;49.65;95869.63;10507080;28;3394;-71
2023/04/05 12:22:10;;;;;;;;;;;;;;;5.67;48.86;95869.94;10507379;28;3136;-72
2023/04/05 12:27:14;;;;;;;;;;;;;;;5.91;48.79;95862.63;10509167;28;2717;-70
2023/04/05 12:32:17;;;;;;;;;;;;;;;6.41;49.70;95845.78;10509676;28;3185;-72
2023/04/05 12:37:19;;;;;;;;;;;;;;;6.47;48.31;95849.34;10513722;28;3135;-69
2023/04/05 12:42:22;;;;;;;;;;;;;;;6.53;47.33;95848.34;10513418;28;2442;-73
2023/04/05 12:47:26;;;;;;;;;;;;;;;5.75;49.07;95847.41;10509436;28;3128;-71
2023/04/05 12:52:28;;;;;;;;;;;;;;;5.91;49.65;95851.94;10512210;28;2388;-71
2023/04/05 12:57:31;;;;;;;;;;;;;;;5.90;48.41;95844.97;10488891;28;2887;-71
2023/04/05 13:02:33;;;;;;;;;;;;;;;6.22;48.02;95841.75;10505932;28;2721;-72
2023/04/05 13:07:36;;;;;;;;;;;;;;;5.82;47.74;95837.38;10505726;28;2741;-74
2023/04/05 13:12:39;;;;;;;;;;;;;;;6.02;46.00;95825.44;10498611;28;2722;-72
2023/04/05 13:17:41;;;;;;;;;;;;;;;5.89;45.92;95822.00;10507255;28;2320;-72
2023/04/05 13:22:44;;;;;;;;;;;;;;;6.50;44.73;95822.97;10511809;28;2752;-72
2023/04/05 13:27:47;;;;;;;;;;;;;;;6.46;44.35;95821.00;10513236;28;2393;-71
2023/04/05 13:32:52;;;;;;;;;;;;;;;6.28;44.80;95818.63;10520049;28;3287;-73
2023/04/05 13:38:04;;;;;;;;;;;;;;;6.21;45.57;95814.25;10512008;28;3183;-74
2023/04/05 13:43:07;;;;;;;;;;;;;;;5.64;47.90;95818.94;10514914;28;2712;-73
2023/04/05 13:48:10;;;;;;;;;;;;;;;5.62;47.85;95818.38;10510242;28;3187;-72
2023/04/05 13:53:12;;;;;;;;;;;;;;;5.81;47.63;95811.75;10508115;28;2718;-72
2023/04/05 13:58:15;;;;;;;;;;;;;;;5.79;45.97;95807.69;10509664;28;2418;-73
2023/04/05 14:03:17;;;;;;;;;;;;;;;6.22;45.99;95799.03;10506020;28;3148;-73
2023/04/05 14:08:20;;;;;;;;;;;;;;;6.34;44.89;95789.06;10507521;28;3150;-72
2023/04/05 14:13:23;;;;;;;;;;;;;;;5.93;45.41;95801.03;10512398;28;3263;-71
2023/04/05 14:18:26;;;;;;;;;;;;;;;6.07;48.41;95790.84;10515166;28;3156;-73
2023/04/05 14:23:29;;;;;;;;;;;;;;;6.29;48.80;95783.66;10520013;28;3215;-73
2023/04/05 14:28:32;;;;;;;;;;;;;;;6.27;49.60;95782.31;10512030;28;3049;-73
2023/04/05 14:33:35;;;;;;;;;;;;;;;6.31;47.64;95792.25;10506411;28;2770;-72
2023/04/05 14:38:38;;;;;;;;;;;;;;;6.06;48.42;95783.88;10511368;28;3120;-71
2023/04/05 14:43:42;;;;;;;;;;;;;;;6.41;46.08;95776.34;10512163;28;3312;-74
2023/04/05 14:48:44;;;;;;;;;;;;;;;6.37;45.79;95775.25;10508437;28;2281;-74
2023/04/05 14:53:47;;;;;;;;;;;;;;;6.41;45.79;95765.66;10510500;28;2748;-75
2023/04/05 14:58:49;;;;;;;;;;;;;;;6.19;45.23;95772.88;10511361;28;2757;-75
2023/04/05 15:03:52;;;;;;;;;;;;;;;6.09;45.46;95772.69;10511966;28;3151;-74
2023/04/05 15:08:55;;;;;;;;;;;;;;;5.86;46.33;95768.34;10493958;28;2726;-76
2023/04/05 15:13:58;;;;;;;;;;;;;;;5.74;47.76;95776.44;10512929;28;2466;-75
2023/04/05 15:19:02;;;;;;;;;;;;;;;5.46;47.60;95774.63;10509432;28;2726;-76
2023/04/05 15:24:04;;;;;;;;;;;;;;;5.75;47.53;95786.06;10515714;28;2702;-73
2023/04/05 15:29:06;;;;;;;;;;;;;;;5.67;45.34;95779.25;10512486;28;3255;-74
2023/04/05 15:34:09;;;;;;;;;;;;;;;5.64;46.11;95771.72;10493913;28;2744;-73
2023/04/05 15:39:12;;;;;;;;;;;;;;;5.72;44.66;95773.19;10512869;28;2858;-75
2023/04/05 15:44:15;;;;;;;;;;;;;;;5.59;45.99;95782.31;10512846;28;2288;-75
2023/04/05 15:49:18;;;;;;;;;;;;;;;5.64;47.40;95778.94;10504884;28;2640;-75
2023/04/05 15:54:20;;;;;;;;;;;;;;;5.53;46.76;95774.47;10508426;28;3159;-74
2023/04/05 15:59:23;;;;;;;;;;;;;;;5.25;47.22;95780.66;10508485;28;2741;-75
2023/04/05 16:04:26;;;;;;;;;;;;;;;5.24;47.54;95771.88;10503136;28;3163;-77
2023/04/05 16:09:30;;;;;;;;;;;;;;;5.22;47.46;95781.16;10494733;28;2276;-74
2023/04/05 16:14:32;;;;;;;;;;;;;;;5.22;47.27;95778.50;10509971;28;2702;-76
2023/04/05 16:19:35;;;;;;;;;;;;;;;5.09;47.69;95774.25;10526277;28;2319;-73
2023/04/05 16:24:38;;;;;;;;;;;;;;;5.11;48.42;95772.16;10506078;28;2734;-74
2023/04/05 16:29:41;;;;;;;;;;;;;;;5.04;47.61;95771.50;10512621;28;3131;-74
2023/04/05 16:34:44;;;;;;;;;;;;;;;5.08;50.03;95778.75;10512961;28;3144;-74
2023/04/05 16:39:46;;;;;;;;;;;;;;;5.01;51.37;95775.44;10509247;28;2324;-74
2023/04/05 16:44:50;;;;;;;;;;;;;;;5.01;51.43;95783.44;10496431;28;3231;-76
2023/04/05 16:49:53;;;;;;;;;;;;;;;4.93;52.41;95781.16;10510237;28;2734;-74
2023/04/05 16:54:56;;;;;;;;;;;;;;;4.65;52.46;95779.28;10517859;28;2320;-74
2023/04/05 16:59:59;;;;;;;;;;;;;;;4.52;53.71;95787.53;10521151;28;3195;-74
2023/04/05 17:05:02;;;;;;;;;;;;;;;4.48;53.69;95778.41;10511594;28;2742;-76
2023/04/05 17:10:05;;;;;;;;;;;;;;;4.36;53.19;95785.59;10510327;28;3172;-74
2023/04/05 17:15:07;;;;;;;;;;;;;;;4.27;54.49;95793.94;10501987;28;2228;-75
2023/04/05 17:20:11;;;;;;;;;;;;;;;4.20;53.64;95793.25;10506170;28;2368;-73
2023/04/05 17:25:14;;;;;;;;;;;;;;;4.11;56.32;95794.63;10512957;28;2734;-73
2023/04/05 17:30:17;;;;;;;;;;;;;;;3.95;56.69;95795.34;10515998;28;2657;-74
2023/04/05 17:35:19;;;;;;;;;;;;;;;3.82;58.88;95799.03;10515529;28;2373;-73
2023/04/05 17:40:23;;;;;;;;;;;;;;;3.66;60.70;95800.50;10517066;28;2761;-73
2023/04/05 17:45:26;;;;;;;;;;;;;;;3.64;59.72;95805.25;10522163;28;2548;-75
2023/04/05 17:50:29;;;;;;;;;;;;;;;3.46;60.92;95802.69;10518428;28;2746;-71
2023/04/05 17:55:33;;;;;;;;;;;;;;;3.32;62.01;95810.03;10513584;28;3152;-70
2023/04/05 18:00:35;;;;;;;;;;;;;;;3.16;64.76;95808.81;10509132;28;3109;-70
2023/04/05 18:05:40;;;;;;;;;;;;;;;3.29;62.79;95817.66;10512133;28;2722;-73
2023/04/05 18:10:43;;;;;;;;;;;;;;;3.16;65.30;95827.41;10509394;28;2654;-70
2023/04/05 18:15:47;;;;;;;;;;;;;;;3.11;64.14;95821.97;10491121;28;2321;-72
2023/04/05 18:20:50;;;;;;;;;;;;;;;3.07;65.67;95828.78;10507259;28;2373;-71
2023/04/05 18:25:53;;;;;;;;;;;;;;;2.98;66.06;95832.78;10497205;28;3168;-71
2023/04/05 18:30:55;;;;;;;;;;;;;;;2.94;65.14;95843.03;10511679;28;3297;-71
2023/04/05 18:35:58;;;;;;;;;;;;;;;3.01;64.27;95848.28;10508056;28;2355;-72
2023/04/05 18:41:01;;;;;;;;;;;;;;;2.95;65.30;95854.47;10513347;28;3198;-71
2023/04/05 18:46:04;;;;;;;;;;;;;;;2.88;66.76;95857.22;10516539;28;2336;-77
2023/04/05 18:51:09;;;;;;;;;;;;;;;2.75;67.63;95856.56;10526244;28;3093;-79
2023/04/05 18:56:12;;;;;;;;;;;;;;;2.84;67.19;95864.00;10525354;28;2283;-78
2023/04/05 19:01:16;;;;;;;;;;;;;;;2.70;68.51;95863.34;10527268;28;2738;-77
2023/04/05 19:06:26;;;;;;;;;;;;;;;2.56;71.72;95869.84;10523694;28;3140;-76
2023/04/05 19:11:30;;;;;;;;;;;;;;;2.43;73.79;95877.94;10507897;28;2370;-74
2023/04/05 19:16:42;;;;;;;;;;;;;;;2.76;69.87;95876.75;10509888;28;3089;-75
2023/04/05 19:21:45;;;;;;;;;;;;;;;2.60;72.03;95878.16;10511594;28;2297;-72
2023/04/05 19:26:47;;;;;;;;;;;;;;;2.55;74.15;95876.19;10519447;28;2288;-76
2023/04/05 19:31:50;;;;;;;;;;;;;;;2.58;73.66;95886.34;10509935;28;2736;-74
2023/04/05 19:36:53;;;;;;;;;;;;;;;2.33;78.01;95885.56;10512354;28;2753;-74
2023/04/05 19:41:56;;;;;;;;;;;;;;;2.43;78.04;95889.34;10515468;28;2300;-74
2023/04/05 19:47:01;;;;;;;;;;;;;;;2.17;80.83;95895.72;10508761;28;3480;-76
2023/04/05 19:52:04;;;;;;;;;;;;;;;1.98;84.92;95891.41;10516755;28;3123;-75
2023/04/05 19:57:08;;;;;;;;;;;;;;;2.21;85.69;95890.78;10499079;28;3289;-73
2023/04/05 20:02:10;;;;;;;;;;;;;;;2.20;83.68;95889.16;10507540;28;2256;-73
2023/04/05 20:07:13;;;;;;;;;;;;;;;2.23;84.37;95887.91;10498701;28;2348;-73
2023/04/05 20:12:19;;;;;;;;;;;;;;;2.01;86.96;95890.16;10519013;28;3316;-73
2023/04/05 20:17:27;;;;;;;;;;;;;;;1.85;88.01;95886.22;10515785;28;3147;-77
2023/04/05 20:22:30;;;;;;;;;;;;;;;1.96;88.14;95882.84;10517070;28;2689;-73
2023/04/05 20:27:33;;;;;;;;;;;;;;;1.76;91.95;95887.50;10512071;28;2348;-74
2023/04/05 20:32:35;;;;;;;;;;;;;;;1.55;95.03;95878.88;10521117;28;2738;-75
2023/04/05 20:37:38;;;;;;;;;;;;;;;1.35;99.48;95881.66;10516653;28;2750;-74
2023/04/05 20:42:41;;;;;;;;;;;;;;;1.26;100.00;95885.56;10521776;28;3179;-74
2023/04/05 20:47:51;;;;;;;;;;;;;;;1.31;100.00;95884.94;10519779;28;2733;-75
2023/04/05 20:52:53;;;;;;;;;;;;;;;1.18;100.00;95880.53;10520812;28;3148;-74
2023/04/05 20:57:56;;;;;;;;;;;;;;;1.24;100.00;95884.16;10502854;28;3152;-73
2023/04/05 21:02:59;;;;;;;;;;;;;;;1.17;100.00;95875.44;10519530;28;2353;-73
2023/04/05 21:08:02;;;;;;;;;;;;;;;1.03;100.00;95880.81;10515872;28;3112;-75
2023/04/05 21:13:04;;;;;;;;;;;;;;;0.97;100.00;95883.50;10513468;28;2746;-72
2023/04/05 21:18:09;;;;;;;;;;;;;;;0.81;100.00;95880.28;10516589;28;2682;-77
2023/04/05 21:23:11;;;;;;;;;;;;;;;0.80;100.00;95880.50;10506982;28;2809;-73
2023/04/05 21:28:15;;;;;;;;;;;;;;;0.74;100.00;95883.97;10511315;28;3203;-72
2023/04/05 21:33:18;;;;;;;;;;;;;;;0.78;100.00;95885.19;10510696;28;3231;-73
2023/04/05 21:38:20;;;;;;;;;;;;;;;0.71;100.00;95901.09;10501431;28;2742;-73
2023/04/05 21:43:23;;;;;;;;;;;;;;;0.65;100.00;95893.19;10515552;28;2742;-73
2023/04/05 21:48:26;;;;;;;;;;;;;;;0.62;100.00;95890.94;10527368;28;3198;-74
2023/04/05 21:53:29;;;;;;;;;;;;;;;0.51;100.00;95880.00;10507745;28;3302;-73
2023/04/05 21:58:32;;;;;;;;;;;;;;;0.40;100.00;95883.28;10516632;28;2320;-73
2023/04/05 22:03:35;;;;;;;;;;;;;;;0.28;100.00;95894.69;10509634;28;2742;-73
2023/04/05 22:08:37;;;;;;;;;;;;;;;0.27;100.00;95883.31;10513660;28;3184;-74
2023/04/05 22:13:40;;;;;;;;;;;;;;;0.24;100.00;95899.56;10515432;28;2744;-73
2023/04/05 22:18:45;;;;;;;;;;;;;;;0.26;100.00;95895.72;10517626;28;2367;-73
2023/04/05 22:23:47;;;;;;;;;;;;;;;0.22;100.00;95885.75;10522088;28;3128;-72
2023/04/05 22:28:50;;;;;;;;;;;;;;;0.13;100.00;95897.56;10508666;28;2755;-70
2023/04/05 22:33:53;;;;;;;;;;;;;;;0.07;100.00;95891.25;10505548;28;2348;-73
2023/04/05 22:38:56;;;;;;;;;;;;;;;0.08;100.00;95890.25;10514685;28;2319;-73
2023/04/05 22:44:08;;;;;;;;;;;;;;;-0.01;100.00;95892.25;10507260;28;3053;-73
2023/04/05 22:49:10;;;;;;;;;;;;;;;-0.06;100.00;95892.09;10509839;28;2289;-73
2023/04/05 22:54:23;;;;;;;;;;;;;;;-0.07;100.00;95882.50;10515040;28;3192;-73
2023/04/05 22:59:26;;;;;;;;;;;;;;;-0.12;100.00;95884.97;10512615;28;2277;-74
2023/04/05 23:04:30;;;;;;;;;;;;;;;-0.21;100.00;95880.09;10510083;28;2773;-73
2023/04/05 23:09:32;;;;;;;;;;;;;;;-0.24;100.00;95881.31;10506878;28;2703;-73
2023/04/05 23:14:35;;;;;;;;;;;;;;;-0.25;100.00;95887.63;10513251;28;3171;-73
2023/04/05 23:19:37;;;;;;;;;;;;;;;-0.20;100.00;95882.50;10514820;28;2305;-73
2023/04/05 23:24:39;;;;;;;;;;;;;;;-0.26;100.00;95883.31;10508097;28;2710;-73
2023/04/05 23:29:43;;;;;;;;;;;;;;;-0.14;100.00;95881.69;10508024;28;3124;-72
2023/04/05 23:34:45;;;;;;;;;;;;;;;-0.29;100.00;95873.19;10508069;28;2293;-73
2023/04/05 23:39:48;;;;;;;;;;;;;;;-0.34;100.00;95878.25;10513696;28;2714;-73
2023/04/05 23:44:51;;;;;;;;;;;;;;;-0.41;100.00;95880.06;10524998;28;3259;-72
2023/04/05 23:49:55;;;;;;;;;;;;;;;-0.47;100.00;95873.78;10508617;28;3267;-73
2023/04/05 23:54:58;;;;;;;;;;;;;;;-0.46;100.00;95871.94;10524128;28;2747;-73
